createdAt,value
2018-12-26T00:01:55.716Z,99.90
2018-12-26T00:04:28.117Z,99.90
2018-12-26T00:07:00.415Z,99.90
2018-12-26T00:09:32.756Z,99.90
2018-12-26T00:12:05.643Z,99.90
2018-12-26T00:14:38.022Z,99.90
2018-12-26T00:17:11.216Z,99.90
2018-12-26T00:19:43.445Z,99.90
2018-12-26T00:22:15.916Z,99.90
2018-12-26T00:24:48.250Z,99.90
2018-12-26T00:27:21.901Z,99.90
2018-12-26T00:29:54.498Z,99.90
2018-12-26T00:32:27.065Z,99.90
2018-12-26T00:34:59.776Z,99.90
2018-12-26T00:37:32.455Z,99.90
2018-12-26T00:40:04.996Z,99.90
2018-12-26T00:42:37.998Z,99.90
2018-12-26T00:45:11.395Z,99.90
2018-12-26T00:47:43.935Z,99.90
2018-12-26T00:50:16.535Z,99.90
2018-12-26T00:52:48.996Z,99.90
2018-12-26T00:55:21.835Z,99.90
2018-12-26T00:57:54.375Z,99.90
2018-12-26T01:00:26.705Z,99.90
2018-12-26T01:02:59.496Z,99.90
2018-12-26T01:05:32.406Z,99.90
2018-12-26T01:08:05.515Z,99.90
2018-12-26T01:10:37.797Z,99.90
2018-12-26T01:13:10.355Z,99.90
2018-12-26T01:15:42.935Z,99.90
2018-12-26T01:18:17.033Z,99.90
2018-12-26T01:20:49.536Z,99.90
2018-12-26T01:23:22.177Z,99.90
2018-12-26T01:25:54.815Z,99.90
2018-12-26T01:28:38.320Z,99.90
2018-12-26T01:31:11.357Z,99.90
2018-12-26T01:33:43.935Z,99.90
2018-12-26T01:36:16.396Z,99.90
2018-12-26T01:38:48.876Z,99.90
2018-12-26T01:41:21.236Z,99.90
2018-12-26T01:43:54.155Z,99.90
2018-12-26T01:46:26.295Z,99.90
2018-12-26T01:48:59.116Z,99.90
2018-12-26T01:51:32.096Z,99.90
2018-12-26T01:54:04.735Z,99.90
2018-12-26T01:56:37.636Z,99.90
2018-12-26T01:59:10.096Z,99.90
2018-12-26T02:01:42.535Z,99.90
2018-12-26T02:04:14.655Z,99.90
2018-12-26T02:06:46.796Z,99.90
2018-12-26T02:09:18.678Z,99.90
2018-12-26T02:11:51.741Z,99.90
2018-12-26T02:14:25.836Z,99.90
2018-12-26T02:16:59.674Z,99.90
2018-12-26T02:19:32.236Z,99.90
2018-12-26T02:22:04.473Z,99.90
2018-12-26T02:24:37.026Z,99.90
2018-12-26T02:27:09.736Z,99.90
2018-12-26T02:29:41.795Z,99.90
2018-12-26T02:32:14.516Z,99.90
2018-12-26T02:34:46.595Z,99.90
2018-12-26T02:37:18.756Z,99.90
2018-12-26T02:39:51.115Z,99.90
2018-12-26T02:42:24.096Z,99.90
2018-12-26T02:44:56.895Z,99.90
2018-12-26T02:47:29.515Z,99.90
2018-12-26T02:50:02.155Z,99.90
2018-12-26T02:52:34.916Z,99.90
2018-12-26T02:55:07.577Z,99.90
2018-12-26T02:57:40.275Z,99.90
2018-12-26T03:03:17.060Z,99.90
2018-12-26T03:05:50.061Z,99.90
2018-12-26T03:08:22.490Z,99.90
2018-12-26T03:10:55.281Z,99.90
2018-12-26T03:13:27.920Z,99.90
2018-12-26T03:16:00.219Z,99.90
2018-12-26T03:18:32.902Z,99.90
2018-12-26T03:21:05.201Z,99.90
2018-12-26T03:23:38.160Z,99.90
2018-12-26T03:26:10.582Z,99.90
2018-12-26T03:28:43.460Z,99.90
2018-12-26T03:31:15.542Z,99.90
2018-12-26T03:33:47.781Z,99.90
2018-12-26T03:36:20.522Z,99.90
2018-12-26T03:38:53.661Z,99.90
2018-12-26T03:41:26.642Z,99.90
2018-12-26T03:43:59.425Z,99.90
2018-12-26T03:46:32.382Z,99.90
2018-12-26T03:49:04.772Z,99.90
2018-12-26T03:51:37.861Z,99.90
2018-12-26T03:54:11.119Z,99.90
2018-12-26T03:56:44.080Z,99.90
2018-12-26T03:59:17.220Z,99.90
2018-12-26T04:01:49.629Z,99.90
2018-12-26T04:04:22.040Z,99.90
2018-12-26T04:06:55.506Z,99.90
2018-12-26T04:09:28.261Z,99.90
2018-12-26T04:12:01.221Z,99.90
2018-12-26T04:14:34.166Z,99.90
2018-12-26T04:17:07.142Z,99.90
2018-12-26T04:19:39.720Z,99.90
2018-12-26T04:22:12.102Z,99.90
2018-12-26T04:24:47.801Z,99.90
2018-12-26T04:27:20.562Z,99.90
2018-12-26T04:29:52.911Z,99.90
2018-12-26T04:32:25.091Z,99.90
2018-12-26T04:34:57.581Z,99.90
2018-12-26T04:37:30.154Z,99.90
2018-12-26T04:40:03.148Z,99.90
2018-12-26T04:42:35.400Z,99.90
2018-12-26T04:45:08.481Z,99.90
2018-12-26T04:47:41.564Z,99.90
2018-12-26T04:50:14.183Z,99.90
2018-12-26T04:52:46.204Z,99.90
2018-12-26T04:55:18.642Z,99.90
2018-12-26T04:57:51.181Z,99.90
2018-12-26T05:00:23.754Z,99.90
2018-12-26T05:02:56.463Z,99.90
2018-12-26T05:05:28.762Z,99.90
2018-12-26T05:08:01.380Z,99.90
2018-12-26T05:10:33.963Z,99.90
2018-12-26T05:13:06.802Z,99.90
2018-12-26T05:15:38.636Z,99.90
2018-12-26T05:18:11.681Z,99.90
2018-12-26T05:20:44.720Z,99.90
2018-12-26T05:23:17.381Z,99.90
2018-12-26T05:25:49.581Z,99.90
2018-12-26T05:28:22.360Z,99.90
2018-12-26T05:30:54.963Z,99.90
2018-12-26T05:33:27.721Z,99.90
2018-12-26T05:36:00.185Z,99.90
2018-12-26T05:38:32.741Z,99.90
2018-12-26T05:41:05.863Z,99.90
2018-12-26T05:43:38.221Z,99.90
2018-12-26T05:46:10.801Z,99.90
2018-12-26T05:48:44.085Z,99.90
2018-12-26T05:51:15.986Z,99.90
2018-12-26T05:53:48.420Z,99.90
2018-12-26T05:56:21.361Z,99.90
2018-12-26T05:58:54.322Z,99.90
2018-12-26T06:01:27.300Z,99.90
2018-12-26T06:03:59.681Z,99.90
2018-12-26T06:06:32.261Z,99.90
2018-12-26T06:09:05.941Z,99.90
2018-12-26T06:11:38.500Z,99.90
2018-12-26T06:14:10.461Z,99.90
2018-12-26T06:16:42.800Z,99.90
2018-12-26T06:19:15.503Z,99.90
2018-12-26T06:21:47.901Z,99.90
2018-12-26T06:24:20.401Z,99.90
2018-12-26T06:26:52.798Z,99.90
2018-12-26T06:29:25.040Z,99.90
2018-12-26T06:31:58.022Z,99.90
2018-12-26T06:34:30.641Z,99.90
2018-12-26T06:37:03.620Z,99.90
2018-12-26T06:39:36.017Z,99.90
2018-12-26T06:42:08.180Z,99.90
2018-12-26T06:44:40.075Z,99.90
2018-12-26T06:47:12.400Z,99.90
2018-12-26T06:49:45.423Z,99.90
2018-12-26T06:52:18.501Z,99.90
2018-12-26T06:54:51.120Z,99.90
2018-12-26T06:57:23.780Z,99.90
2018-12-26T06:59:56.401Z,99.90
2018-12-26T07:02:28.996Z,99.90
2018-12-26T07:05:01.716Z,99.90
2018-12-26T07:07:34.640Z,99.90
2018-12-26T07:10:07.601Z,99.90
2018-12-26T07:12:40.740Z,99.90
2018-12-26T07:15:13.081Z,99.90
2018-12-26T07:17:47.442Z,99.90
2018-12-26T07:20:19.781Z,99.90
2018-12-26T07:22:52.278Z,99.90
2018-12-26T07:25:25.041Z,99.90
2018-12-26T07:27:57.180Z,99.90
2018-12-26T07:30:29.861Z,99.90
2018-12-26T07:33:02.340Z,99.90
2018-12-26T07:35:34.760Z,99.90
2018-12-26T07:38:07.161Z,99.90
2018-12-26T07:40:39.460Z,99.90
2018-12-26T07:43:12.080Z,99.90
2018-12-26T07:45:44.241Z,99.90
2018-12-26T07:48:17.061Z,99.90
2018-12-26T07:50:49.655Z,99.90
2018-12-26T07:53:21.901Z,99.90
2018-12-26T07:55:54.161Z,99.90
2018-12-26T07:58:26.801Z,99.90
2018-12-26T08:00:59.544Z,99.90
2018-12-26T08:03:31.785Z,99.90
2018-12-26T08:06:04.529Z,99.90
2018-12-26T08:08:37.100Z,99.90
2018-12-26T08:11:09.681Z,99.90
2018-12-26T08:13:42.640Z,99.90
2018-12-26T08:16:14.792Z,99.90
2018-12-26T08:18:46.861Z,99.90
2018-12-26T08:21:19.473Z,99.90
2018-12-26T08:23:51.881Z,99.90
2018-12-26T08:26:24.560Z,99.90
2018-12-26T08:28:56.900Z,99.90
2018-12-26T08:31:29.411Z,99.90
2018-12-26T08:34:01.580Z,99.90
2018-12-26T08:36:34.440Z,99.90
2018-12-26T08:39:09.380Z,99.90
2018-12-26T08:41:42.660Z,99.90
2018-12-26T08:44:15.621Z,99.90
2018-12-26T08:46:48.561Z,99.90
2018-12-26T08:49:21.220Z,99.90
2018-12-26T08:51:53.233Z,99.90
2018-12-26T08:54:25.863Z,99.90
2018-12-26T08:56:58.621Z,99.90
2018-12-26T08:59:31.339Z,99.90
2018-12-26T09:02:03.380Z,99.90
2018-12-26T09:04:36.083Z,99.90
2018-12-26T09:07:08.660Z,99.90
2018-12-26T09:09:41.070Z,99.90
2018-12-26T09:12:13.420Z,99.90
2018-12-26T09:14:46.320Z,99.90
2018-12-26T09:17:18.980Z,99.70
2018-12-26T09:19:51.440Z,99.20
2018-12-26T09:22:24.881Z,99.60
2018-12-26T09:24:57.521Z,99.90
2018-12-26T09:27:31.429Z,99.80
2018-12-26T09:30:09.283Z,98.90
2018-12-26T09:32:44.101Z,97.60
2018-12-26T09:35:17.121Z,97.40
2018-12-26T09:37:50.340Z,98.20
2018-12-26T09:40:23.282Z,97.60
2018-12-26T09:42:55.600Z,98.10
2018-12-26T09:45:27.940Z,98.00
2018-12-26T09:48:00.259Z,97.60
2018-12-26T09:50:32.559Z,97.50
2018-12-26T09:53:05.259Z,97.00
2018-12-26T09:55:37.879Z,95.90
2018-12-26T09:58:11.593Z,96.20
2018-12-26T10:00:44.239Z,96.10
2018-12-26T10:03:16.937Z,96.00
2018-12-26T10:05:49.339Z,92.10
2018-12-26T10:08:22.180Z,82.60
2018-12-26T10:10:54.640Z,78.40
2018-12-26T10:13:27.619Z,74.20
2018-12-26T10:16:00.139Z,68.30
2018-12-26T10:18:33.559Z,63.00
2018-12-26T10:21:07.140Z,59.60
2018-12-26T10:23:39.779Z,56.60
2018-12-26T10:26:12.259Z,58.20
2018-12-26T10:28:44.740Z,60.80
2018-12-26T10:31:17.380Z,62.30
2018-12-26T10:33:49.880Z,63.70
2018-12-26T10:36:22.122Z,64.50
2018-12-26T10:38:54.643Z,63.70
2018-12-26T10:41:27.138Z,65.30
2018-12-26T10:43:59.359Z,65.50
2018-12-26T10:46:32.260Z,64.90
2018-12-26T10:49:05.240Z,66.90
2018-12-26T10:51:37.680Z,69.40
2018-12-26T10:54:10.259Z,71.20
2018-12-26T10:56:42.820Z,72.70
2018-12-26T10:59:17.359Z,73.10
2018-12-26T11:01:51.943Z,71.50
2018-12-26T11:04:24.279Z,72.20
2018-12-26T11:06:58.500Z,72.80
2018-12-26T11:09:30.702Z,74.40
2018-12-26T11:12:03.460Z,74.20
2018-12-26T11:14:35.759Z,73.60
2018-12-26T11:17:08.413Z,73.40
2018-12-26T11:19:42.344Z,71.50
2018-12-26T11:22:14.800Z,71.80
2018-12-26T11:24:48.121Z,70.60
2018-12-26T11:27:20.739Z,69.30
2018-12-26T11:29:53.559Z,67.70
2018-12-26T11:32:26.223Z,66.30
2018-12-26T11:34:58.679Z,67.80
2018-12-26T11:37:31.137Z,67.20
2018-12-26T11:40:04.081Z,66.60
2018-12-26T11:42:36.499Z,66.90
2018-12-26T11:45:08.840Z,65.60
2018-12-26T11:47:41.400Z,62.70
2018-12-26T11:50:13.940Z,61.00
2018-12-26T11:52:46.017Z,58.20
2018-12-26T11:55:19.521Z,56.60
2018-12-26T11:57:52.701Z,52.80
2018-12-26T12:00:25.203Z,51.90
2018-12-26T12:02:57.541Z,50.80
2018-12-26T12:05:30.659Z,48.80
2018-12-26T12:08:03.160Z,48.50
2018-12-26T12:10:36.779Z,45.20
2018-12-26T12:13:09.526Z,42.80
2018-12-26T12:15:42.319Z,42.50
2018-12-26T12:18:15.279Z,41.30
2018-12-26T12:20:47.965Z,40.50
2018-12-26T12:23:20.520Z,39.10
2018-12-26T12:25:52.881Z,38.20
2018-12-26T12:28:25.880Z,37.70
2018-12-26T12:30:58.941Z,37.10
2018-12-26T12:33:31.117Z,37.70
2018-12-26T12:36:03.760Z,37.70
2018-12-26T12:38:37.142Z,38.50
2018-12-26T12:41:11.620Z,39.40
2018-12-26T12:43:44.800Z,38.60
2018-12-26T12:46:17.221Z,38.80
2018-12-26T12:48:49.840Z,39.60
2018-12-26T12:51:22.480Z,39.90
2018-12-26T12:53:55.225Z,42.90
2018-12-26T12:56:27.540Z,43.70
2018-12-26T12:59:00.600Z,45.50
2018-12-26T13:01:33.059Z,46.30
2018-12-26T13:04:05.799Z,47.20
2018-12-26T13:06:38.341Z,47.50
2018-12-26T13:09:10.960Z,48.20
2018-12-26T13:11:43.780Z,48.80
2018-12-26T13:14:15.756Z,47.10
2018-12-26T13:16:48.239Z,48.20
2018-12-26T13:19:20.941Z,49.70
2018-12-26T13:21:53.839Z,50.20
2018-12-26T13:24:26.479Z,51.20
2018-12-26T13:26:59.138Z,52.40
2018-12-26T13:29:31.459Z,54.00
2018-12-26T13:32:04.580Z,54.80
2018-12-26T13:34:36.621Z,55.00
2018-12-26T13:37:08.535Z,54.70
2018-12-26T13:39:40.561Z,55.40
2018-12-26T13:42:13.222Z,55.70
2018-12-26T13:44:46.680Z,55.80
2018-12-26T13:47:19.640Z,57.50
2018-12-26T13:49:52.007Z,57.40
2018-12-26T13:52:25.200Z,57.70
2018-12-26T13:54:57.520Z,57.60
2018-12-26T13:57:29.880Z,57.30
2018-12-26T14:00:02.378Z,57.50
2018-12-26T14:02:36.419Z,56.10
2018-12-26T14:05:09.099Z,56.10
2018-12-26T14:07:41.200Z,55.90
2018-12-26T14:10:13.380Z,56.10
2018-12-26T14:12:45.603Z,55.80
2018-12-26T14:15:17.766Z,56.30
2018-12-26T14:17:50.244Z,56.30
2018-12-26T14:20:23.021Z,56.40
2018-12-26T14:22:56.056Z,57.20
2018-12-26T14:25:28.799Z,58.00
2018-12-26T14:28:01.442Z,59.20
2018-12-26T14:30:35.260Z,61.20
2018-12-26T14:33:08.902Z,64.90
2018-12-26T14:35:41.199Z,65.00
2018-12-26T14:38:14.340Z,68.00
2018-12-26T14:40:46.420Z,70.90
2018-12-26T14:43:19.461Z,72.90
2018-12-26T14:45:52.300Z,74.90
2018-12-26T14:48:24.920Z,76.60
2018-12-26T14:50:57.198Z,78.80
2018-12-26T14:53:29.861Z,79.80
2018-12-26T14:56:02.219Z,81.50
2018-12-26T14:58:34.680Z,83.30
2018-12-26T15:01:07.023Z,84.20
2018-12-26T15:03:39.760Z,86.40
2018-12-26T15:06:12.260Z,86.70
2018-12-26T15:08:45.220Z,89.10
2018-12-26T15:11:17.179Z,89.70
2018-12-26T15:13:49.779Z,90.80
2018-12-26T15:16:22.838Z,91.30
2018-12-26T15:18:55.685Z,92.30
2018-12-26T15:21:28.280Z,92.90
2018-12-26T15:24:01.439Z,93.30
2018-12-26T15:26:34.146Z,94.10
2018-12-26T15:29:06.819Z,95.30
2018-12-26T15:31:40.162Z,95.70
2018-12-26T15:34:12.141Z,96.30
2018-12-26T15:36:44.817Z,96.90
2018-12-26T15:39:17.701Z,98.00
2018-12-26T15:41:50.159Z,97.90
2018-12-26T15:44:23.300Z,99.20
2018-12-26T15:46:56.204Z,99.90
2018-12-26T15:49:28.840Z,99.90
2018-12-26T15:52:01.240Z,99.90
2018-12-26T15:54:34.900Z,99.90
2018-12-26T15:57:07.159Z,99.90
2018-12-26T15:59:39.808Z,99.90
2018-12-26T16:02:12.619Z,99.90
2018-12-26T16:04:45.040Z,99.90
2018-12-26T16:07:17.740Z,99.90
2018-12-26T16:09:50.149Z,99.90
2018-12-26T16:12:22.839Z,99.90
2018-12-26T16:14:55.299Z,99.90
2018-12-26T16:17:27.730Z,99.90
2018-12-26T16:20:00.560Z,99.90
2018-12-26T16:22:33.620Z,99.90
2018-12-26T16:25:06.679Z,99.90
2018-12-26T16:27:39.001Z,99.90
2018-12-26T16:30:11.799Z,99.90
2018-12-26T16:32:44.499Z,99.90
2018-12-26T16:35:17.380Z,99.90
2018-12-26T16:37:50.201Z,99.90
2018-12-26T16:40:23.479Z,99.90
2018-12-26T16:42:56.119Z,99.90
2018-12-26T16:45:28.761Z,99.90
2018-12-26T16:48:01.220Z,99.90
2018-12-26T16:50:34.000Z,99.90
2018-12-26T16:53:06.800Z,99.90
2018-12-26T16:55:40.246Z,99.90
2018-12-26T16:58:12.763Z,99.90
2018-12-26T17:00:45.360Z,99.90
2018-12-26T17:03:18.181Z,99.90
2018-12-26T17:05:51.281Z,99.90
2018-12-26T17:08:24.739Z,99.90
2018-12-26T17:10:57.421Z,99.90
2018-12-26T17:13:29.839Z,99.90
2018-12-26T17:16:02.800Z,99.90
2018-12-26T17:18:35.161Z,99.90
2018-12-26T17:21:07.620Z,99.90
2018-12-26T17:23:39.820Z,99.90
2018-12-26T17:26:11.999Z,99.90
2018-12-26T17:28:45.581Z,99.90
2018-12-26T17:31:18.060Z,99.90
2018-12-26T17:33:50.340Z,99.90
2018-12-26T17:36:22.861Z,99.90
2018-12-26T17:38:55.600Z,99.90
2018-12-26T17:41:29.379Z,99.90
2018-12-26T17:44:02.241Z,99.90
2018-12-26T17:46:34.899Z,99.90
2018-12-26T17:49:07.519Z,99.90
2018-12-26T17:51:40.099Z,99.90
2018-12-26T17:54:52.940Z,99.90
2018-12-26T17:57:39.122Z,99.90
2018-12-26T18:00:30.979Z,99.90
2018-12-26T18:03:03.601Z,99.90
2018-12-26T18:05:35.812Z,99.90
2018-12-26T18:08:08.320Z,99.90
2018-12-26T18:10:41.200Z,99.90
2018-12-26T18:13:13.453Z,99.90
2018-12-26T18:15:45.759Z,99.90
2018-12-26T18:18:18.440Z,99.90
2018-12-26T18:20:51.902Z,99.90
2018-12-26T18:23:24.738Z,99.90
2018-12-26T18:25:57.074Z,99.90
2018-12-26T18:28:30.040Z,99.90
2018-12-26T18:31:02.660Z,99.90
2018-12-26T18:33:35.093Z,99.90
2018-12-26T18:36:10.557Z,99.90
2018-12-26T18:38:43.921Z,99.90
2018-12-26T18:41:16.087Z,99.90
2018-12-26T18:43:48.800Z,99.90
2018-12-26T18:46:21.402Z,99.90
2018-12-26T18:48:54.001Z,99.90
2018-12-26T18:51:26.200Z,99.90
2018-12-26T18:53:59.619Z,99.90
2018-12-26T18:56:32.240Z,99.90
2018-12-26T18:59:05.400Z,99.90
2018-12-26T19:01:37.719Z,99.90
2018-12-26T19:04:10.659Z,99.90
2018-12-26T19:06:43.160Z,99.90
2018-12-26T19:09:19.282Z,99.90
2018-12-26T19:11:51.919Z,99.90
2018-12-26T19:14:24.579Z,99.90
2018-12-26T19:16:57.201Z,99.90
2018-12-26T19:19:32.459Z,99.90
2018-12-26T19:22:05.205Z,99.90
2018-12-26T19:24:38.019Z,99.90
2018-12-26T19:27:12.005Z,99.90
2018-12-26T19:29:47.679Z,99.90
2018-12-26T19:32:20.920Z,99.90
2018-12-26T19:34:53.383Z,99.90
2018-12-26T19:37:25.980Z,99.90
2018-12-26T19:39:59.301Z,99.90
2018-12-26T19:42:37.335Z,99.90
2018-12-26T19:45:06.200Z,99.90
2018-12-26T19:47:38.820Z,99.90
2018-12-26T19:50:12.287Z,99.90
2018-12-26T19:52:48.054Z,99.90
2018-12-26T19:55:20.500Z,99.90
2018-12-26T19:57:53.200Z,99.90
2018-12-26T20:00:38.020Z,99.90
2018-12-26T20:03:10.379Z,99.90
2018-12-26T20:05:43.299Z,99.90
2018-12-26T20:08:16.200Z,99.90
2018-12-26T20:10:48.879Z,99.90
2018-12-26T20:13:24.103Z,99.90
2018-12-26T20:16:00.265Z,99.90
2018-12-26T20:18:35.398Z,99.90
2018-12-26T20:21:09.079Z,99.90
2018-12-26T20:23:42.681Z,99.90
2018-12-26T20:26:14.900Z,99.90
2018-12-26T20:28:47.340Z,99.90
2018-12-26T20:31:19.610Z,99.90
2018-12-26T20:33:54.180Z,99.90
2018-12-26T20:36:29.482Z,99.90
2018-12-26T20:39:01.900Z,99.90
2018-12-26T20:41:36.567Z,99.90
2018-12-26T20:44:09.399Z,99.90
2018-12-26T20:46:41.480Z,99.90
2018-12-26T20:49:15.009Z,99.90
2018-12-26T20:51:47.940Z,99.90
2018-12-26T20:54:23.046Z,99.90
2018-12-26T20:56:56.843Z,99.90
2018-12-26T20:59:29.540Z,99.90
2018-12-26T21:02:05.808Z,99.90
2018-12-26T21:04:36.871Z,99.90
2018-12-26T21:07:47.114Z,99.90
2018-12-26T21:10:20.442Z,99.90
2018-12-26T21:12:53.221Z,99.90
2018-12-26T21:15:26.891Z,99.90
2018-12-26T21:18:00.499Z,99.90
2018-12-26T21:20:33.701Z,99.90
2018-12-26T21:23:06.200Z,99.90
2018-12-26T21:25:38.500Z,99.90
2018-12-26T21:28:11.140Z,99.90
2018-12-26T21:30:43.452Z,99.90
2018-12-26T21:33:16.259Z,99.90
2018-12-26T21:35:48.879Z,99.90
2018-12-26T21:38:21.579Z,99.90
2018-12-26T21:40:55.101Z,99.90
2018-12-26T21:43:28.799Z,99.90
2018-12-26T21:46:01.844Z,99.90
2018-12-26T21:48:34.628Z,99.90
2018-12-26T21:51:07.299Z,99.90
2018-12-26T21:53:39.460Z,99.90
2018-12-26T21:56:12.301Z,99.90
2018-12-26T21:58:44.720Z,99.90
2018-12-26T22:01:17.059Z,99.90
2018-12-26T22:03:49.853Z,99.90
2018-12-26T22:06:23.339Z,99.90
2018-12-26T22:08:56.260Z,99.90
2018-12-26T22:11:40.316Z,99.90
2018-12-26T22:14:12.719Z,99.90
2018-12-26T22:16:45.679Z,99.90
2018-12-26T22:19:17.940Z,99.90
2018-12-26T22:21:50.841Z,99.90
2018-12-26T22:24:23.264Z,99.90
2018-12-26T22:26:56.241Z,99.90
2018-12-26T22:29:28.738Z,99.90
2018-12-26T22:32:01.418Z,99.90
2018-12-26T22:34:34.159Z,99.90
2018-12-26T22:37:06.539Z,99.90
2018-12-26T22:39:38.783Z,99.90
2018-12-26T22:42:12.420Z,99.90
2018-12-26T22:44:44.760Z,99.90
2018-12-26T22:47:17.659Z,99.90
2018-12-26T22:49:50.963Z,99.90
2018-12-26T22:52:23.639Z,99.90
2018-12-26T22:54:55.780Z,99.90
2018-12-26T22:57:28.561Z,99.90
2018-12-26T23:00:22.979Z,99.90
2018-12-26T23:02:56.245Z,99.90
2018-12-26T23:05:28.559Z,99.90
2018-12-26T23:08:01.219Z,99.90
2018-12-26T23:10:33.841Z,99.90
2018-12-26T23:13:06.499Z,99.90
2018-12-26T23:15:39.440Z,99.90
2018-12-26T23:18:13.561Z,99.90
2018-12-26T23:20:46.986Z,99.90
2018-12-26T23:23:19.639Z,99.90
2018-12-26T23:25:52.159Z,99.90
2018-12-26T23:28:25.300Z,99.90
2018-12-26T23:30:58.160Z,99.90
2018-12-26T23:33:31.120Z,99.90
2018-12-26T23:36:03.783Z,99.90
2018-12-26T23:38:36.879Z,99.90
2018-12-26T23:41:09.137Z,99.90
2018-12-26T23:43:42.023Z,99.90
2018-12-26T23:46:14.664Z,99.90
2018-12-26T23:48:47.360Z,99.90
2018-12-26T23:51:19.599Z,99.90
2018-12-26T23:53:51.939Z,99.90
2018-12-26T23:56:24.349Z,99.90
2018-12-26T23:58:57.099Z,99.90
